sensor_id;sensor_type;location;lat;lon;timestamp;temperature;humidity
16076;DHT22;8142;48.242;11.644;2023-02-23T00:01:27;7.70;99.90
16076;DHT22;8142;48.242;11.644;2023-02-23T00:03:58;7.70;99.90
16076;DHT22;8142;48.242;11.644;2023-02-23T00:06:30;7.70;99.90
16076;DHT22;8142;48.242;11.644;2023-02-23T00:09:05;7.60;99.90
16076;DHT22;8142;48.242;11.644;2023-02-23T00:11:37;7.60;99.90
16076;DHT22;8142;48.242;11.644;2023-02-23T00:14:03;7.60;99.90
16076;DHT22;8142;48.242;11.644;2023-02-23T00:16:30;7.50;99.90
16076;DHT22;8142;48.242;11.644;2023-02-23T00:18:58;7.60;99.90
16076;DHT22;8142;48.242;11.644;2023-02-23T00:21:31;7.60;99.90
16076;DHT22;8142;48.242;11.644;2023-02-23T00:24:07;7.50;99.90
16076;DHT22;8142;48.242;11.644;2023-02-23T00:26:35;7.50;99.90
16076;DHT22;8142;48.242;11.644;2023-02-23T00:29:04;7.50;99.90
16076;DHT22;8142;48.242;11.644;2023-02-23T00:31:31;7.50;99.90
16076;DHT22;8142;48.242;11.644;2023-02-23T00:34:06;7.50;99.90
16076;DHT22;8142;48.242;11.644;2023-02-23T00:36:34;7.50;99.90
16076;DHT22;8142;48.242;11.644;2023-02-23T00:39:03;7.60;99.90
16076;DHT22;8142;48.242;11.644;2023-02-23T00:41:52;7.50;99.90
16076;DHT22;8142;48.242;11.644;2023-02-23T00:44:19;7.60;99.90
16076;DHT22;8142;48.242;11.644;2023-02-23T00:46:46;7.60;99.90
16076;DHT22;8142;48.242;11.644;2023-02-23T00:49:17;7.60;99.90
16076;DHT22;8142;48.242;11.644;2023-02-23T00:51:44;7.60;99.90
16076;DHT22;8142;48.242;11.644;2023-02-23T00:54:12;7.60;99.90
16076;DHT22;8142;48.242;11.644;2023-02-23T00:56:40;7.60;99.90
16076;DHT22;8142;48.242;11.644;2023-02-23T00:59:10;7.60;99.90
16076;DHT22;8142;48.242;11.644;2023-02-23T01:01:37;7.50;99.90
16076;DHT22;8142;48.242;11.644;2023-02-23T01:04:04;7.50;99.90
16076;DHT22;8142;48.242;11.644;2023-02-23T01:06:32;7.50;99.90
16076;DHT22;8142;48.242;11.644;2023-02-23T01:08:58;7.50;99.90
16076;DHT22;8142;48.242;11.644;2023-02-23T01:11:27;7.50;99.90
16076;DHT22;8142;48.242;11.644;2023-02-23T01:13:55;7.50;99.90
16076;DHT22;8142;48.242;11.644;2023-02-23T01:16:25;7.50;99.90
16076;DHT22;8142;48.242;11.644;2023-02-23T01:18:54;7.50;99.90
16076;DHT22;8142;48.242;11.644;2023-02-23T01:21:24;7.50;99.90
16076;DHT22;8142;48.242;11.644;2023-02-23T01:23:52;7.50;99.90
16076;DHT22;8142;48.242;11.644;2023-02-23T01:26:26;7.50;99.90
16076;DHT22;8142;48.242;11.644;2023-02-23T01:28:58;7.50;99.90
16076;DHT22;8142;48.242;11.644;2023-02-23T01:31:26;7.50;99.90
16076;DHT22;8142;48.242;11.644;2023-02-23T01:33:55;7.50;99.90
16076;DHT22;8142;48.242;11.644;2023-02-23T01:36:22;7.50;99.90
16076;DHT22;8142;48.242;11.644;2023-02-23T01:38:48;7.50;99.90
16076;DHT22;8142;48.242;11.644;2023-02-23T01:41:15;7.50;99.90
16076;DHT22;8142;48.242;11.644;2023-02-23T01:46:45;7.60;99.90
16076;DHT22;8142;48.242;11.644;2023-02-23T01:49:15;7.60;99.90
16076;DHT22;8142;48.242;11.644;2023-02-23T01:51:51;7.60;99.90
16076;DHT22;8142;48.242;11.644;2023-02-23T01:55:05;7.60;99.90
16076;DHT22;8142;48.242;11.644;2023-02-23T01:57:17;7.60;99.90
16076;DHT22;8142;48.242;11.644;2023-02-23T01:59:46;7.60;99.90
16076;DHT22;8142;48.242;11.644;2023-02-23T02:02:17;7.60;99.90
16076;DHT22;8142;48.242;11.644;2023-02-23T02:04:44;7.60;99.90
16076;DHT22;8142;48.242;11.644;2023-02-23T02:07:17;7.60;99.90
16076;DHT22;8142;48.242;11.644;2023-02-23T02:09:45;7.60;99.90
16076;DHT22;8142;48.242;11.644;2023-02-23T02:12:32;7.60;99.90
16076;DHT22;8142;48.242;11.644;2023-02-23T02:14:59;7.60;99.90
16076;DHT22;8142;48.242;11.644;2023-02-23T02:20:46;7.60;99.90
16076;DHT22;8142;48.242;11.644;2023-02-23T02:38:52;7.60;99.90
16076;DHT22;8142;48.242;11.644;2023-02-23T02:41:48;7.60;99.90
16076;DHT22;8142;48.242;11.644;2023-02-23T02:44:31;7.60;99.90
16076;DHT22;8142;48.242;11.644;2023-02-23T02:47:07;7.60;99.90
16076;DHT22;8142;48.242;11.644;2023-02-23T02:50:09;7.50;99.90
16076;DHT22;8142;48.242;11.644;2023-02-23T02:52:47;7.50;99.90
16076;DHT22;8142;48.242;11.644;2023-02-23T02:55:23;7.50;99.90
16076;DHT22;8142;48.242;11.644;2023-02-23T02:57:54;7.50;99.90
16076;DHT22;8142;48.242;11.644;2023-02-23T03:00:29;7.50;99.90
16076;DHT22;8142;48.242;11.644;2023-02-23T03:03:31;7.50;99.90
16076;DHT22;8142;48.242;11.644;2023-02-23T03:06:33;7.50;99.90
16076;DHT22;8142;48.242;11.644;2023-02-23T03:15:48;7.50;99.90
16076;DHT22;8142;48.242;11.644;2023-02-23T03:19:04;7.40;99.90
16076;DHT22;8142;48.242;11.644;2023-02-23T03:22:05;7.40;99.90
16076;DHT22;8142;48.242;11.644;2023-02-23T03:24:58;7.40;99.90
16076;DHT22;8142;48.242;11.644;2023-02-23T03:27:55;7.40;99.90
16076;DHT22;8142;48.242;11.644;2023-02-23T03:31:11;7.40;99.90
16076;DHT22;8142;48.242;11.644;2023-02-23T03:37:18;7.40;99.90
16076;DHT22;8142;48.242;11.644;2023-02-23T03:40:12;7.40;99.90
16076;DHT22;8142;48.242;11.644;2023-02-23T03:43:01;7.40;99.90
16076;DHT22;8142;48.242;11.644;2023-02-23T03:45:50;7.40;99.90
16076;DHT22;8142;48.242;11.644;2023-02-23T03:48:35;7.40;99.90
16076;DHT22;8142;48.242;11.644;2023-02-23T03:51:22;7.40;99.90
16076;DHT22;8142;48.242;11.644;2023-02-23T03:54:15;7.40;99.90
16076;DHT22;8142;48.242;11.644;2023-02-23T03:57:03;7.30;99.90
16076;DHT22;8142;48.242;11.644;2023-02-23T03:59:56;7.30;99.90
16076;DHT22;8142;48.242;11.644;2023-02-23T04:02:43;7.30;99.90
16076;DHT22;8142;48.242;11.644;2023-02-23T04:05:30;7.30;99.90
16076;DHT22;8142;48.242;11.644;2023-02-23T04:08:17;7.10;99.90
16076;DHT22;8142;48.242;11.644;2023-02-23T04:14:18;6.50;99.90
16076;DHT22;8142;48.242;11.644;2023-02-23T04:16:46;6.20;99.90
16076;DHT22;8142;48.242;11.644;2023-02-23T04:19:13;5.90;99.90
16076;DHT22;8142;48.242;11.644;2023-02-23T04:21:39;5.80;99.90
16076;DHT22;8142;48.242;11.644;2023-02-23T04:24:06;5.60;99.90
16076;DHT22;8142;48.242;11.644;2023-02-23T04:26:32;5.50;99.90
16076;DHT22;8142;48.242;11.644;2023-02-23T04:28:58;5.40;99.90
16076;DHT22;8142;48.242;11.644;2023-02-23T04:31:25;5.40;99.90
16076;DHT22;8142;48.242;11.644;2023-02-23T04:33:51;5.30;99.90
16076;DHT22;8142;48.242;11.644;2023-02-23T04:36:17;5.20;99.90
16076;DHT22;8142;48.242;11.644;2023-02-23T04:38:44;5.00;99.90
16076;DHT22;8142;48.242;11.644;2023-02-23T04:41:10;5.00;99.90
16076;DHT22;8142;48.242;11.644;2023-02-23T04:43:36;4.90;99.90
16076;DHT22;8142;48.242;11.644;2023-02-23T04:46:02;4.90;99.90
16076;DHT22;8142;48.242;11.644;2023-02-23T04:48:29;4.90;99.90
16076;DHT22;8142;48.242;11.644;2023-02-23T04:50:55;4.90;99.90
16076;DHT22;8142;48.242;11.644;2023-02-23T04:53:21;5.00;99.90
16076;DHT22;8142;48.242;11.644;2023-02-23T04:55:47;5.00;99.90
16076;DHT22;8142;48.242;11.644;2023-02-23T04:58:14;5.00;99.90
16076;DHT22;8142;48.242;11.644;2023-02-23T05:00:40;5.20;99.90
16076;DHT22;8142;48.242;11.644;2023-02-23T05:03:06;5.00;99.90
16076;DHT22;8142;48.242;11.644;2023-02-23T05:05:32;5.00;99.90
16076;DHT22;8142;48.242;11.644;2023-02-23T05:07:59;5.10;99.90
16076;DHT22;8142;48.242;11.644;2023-02-23T05:10:25;5.10;99.90
16076;DHT22;8142;48.242;11.644;2023-02-23T05:12:52;5.00;99.90
16076;DHT22;8142;48.242;11.644;2023-02-23T05:15:18;5.00;99.90
16076;DHT22;8142;48.242;11.644;2023-02-23T05:17:45;4.90;99.90
16076;DHT22;8142;48.242;11.644;2023-02-23T05:20:12;4.80;99.90
16076;DHT22;8142;48.242;11.644;2023-02-23T05:22:39;4.80;99.90
16076;DHT22;8142;48.242;11.644;2023-02-23T05:25:06;4.70;99.90
16076;DHT22;8142;48.242;11.644;2023-02-23T05:27:37;4.70;99.90
16076;DHT22;8142;48.242;11.644;2023-02-23T05:30:05;4.60;99.90
16076;DHT22;8142;48.242;11.644;2023-02-23T05:32:33;4.60;99.90
16076;DHT22;8142;48.242;11.644;2023-02-23T05:35:00;4.60;99.90
16076;DHT22;8142;48.242;11.644;2023-02-23T05:37:27;4.60;99.90
16076;DHT22;8142;48.242;11.644;2023-02-23T05:39:53;4.60;99.90
16076;DHT22;8142;48.242;11.644;2023-02-23T05:42:20;4.60;99.90
16076;DHT22;8142;48.242;11.644;2023-02-23T05:44:46;4.60;99.90
16076;DHT22;8142;48.242;11.644;2023-02-23T05:47:12;4.90;99.90
16076;DHT22;8142;48.242;11.644;2023-02-23T05:49:38;4.80;99.90
16076;DHT22;8142;48.242;11.644;2023-02-23T05:52:05;4.90;99.90
16076;DHT22;8142;48.242;11.644;2023-02-23T05:54:31;5.00;99.90
16076;DHT22;8142;48.242;11.644;2023-02-23T05:56:58;5.20;99.90
16076;DHT22;8142;48.242;11.644;2023-02-23T05:59:24;5.20;99.90
16076;DHT22;8142;48.242;11.644;2023-02-23T06:01:50;5.40;99.90
16076;DHT22;8142;48.242;11.644;2023-02-23T06:04:17;5.50;99.90
16076;DHT22;8142;48.242;11.644;2023-02-23T06:06:44;5.50;99.90
16076;DHT22;8142;48.242;11.644;2023-02-23T06:09:13;5.60;99.90
16076;DHT22;8142;48.242;11.644;2023-02-23T06:11:39;5.70;99.90
16076;DHT22;8142;48.242;11.644;2023-02-23T06:14:06;5.80;99.90
16076;DHT22;8142;48.242;11.644;2023-02-23T06:16:32;5.90;99.90
16076;DHT22;8142;48.242;11.644;2023-02-23T06:18:58;6.00;99.90
16076;DHT22;8142;48.242;11.644;2023-02-23T06:21:24;6.00;99.90
16076;DHT22;8142;48.242;11.644;2023-02-23T06:23:51;6.00;99.90
16076;DHT22;8142;48.242;11.644;2023-02-23T06:26:20;6.10;99.90
16076;DHT22;8142;48.242;11.644;2023-02-23T06:28:47;6.10;99.90
16076;DHT22;8142;48.242;11.644;2023-02-23T06:31:13;6.20;99.90
16076;DHT22;8142;48.242;11.644;2023-02-23T06:33:39;6.20;99.90
16076;DHT22;8142;48.242;11.644;2023-02-23T06:36:06;6.30;99.90
16076;DHT22;8142;48.242;11.644;2023-02-23T06:38:33;6.20;99.90
16076;DHT22;8142;48.242;11.644;2023-02-23T06:41:09;6.30;99.90
16076;DHT22;8142;48.242;11.644;2023-02-23T06:43:36;6.30;99.90
16076;DHT22;8142;48.242;11.644;2023-02-23T06:46:02;6.30;99.90
16076;DHT22;8142;48.242;11.644;2023-02-23T06:48:29;6.40;99.90
16076;DHT22;8142;48.242;11.644;2023-02-23T06:50:58;6.40;99.90
16076;DHT22;8142;48.242;11.644;2023-02-23T06:53:28;6.40;99.90
16076;DHT22;8142;48.242;11.644;2023-02-23T06:55:55;6.50;99.90
16076;DHT22;8142;48.242;11.644;2023-02-23T06:58:22;6.60;99.90
16076;DHT22;8142;48.242;11.644;2023-02-23T07:00:48;6.60;99.90
16076;DHT22;8142;48.242;11.644;2023-02-23T07:03:14;6.60;99.90
16076;DHT22;8142;48.242;11.644;2023-02-23T07:05:40;6.70;99.90
16076;DHT22;8142;48.242;11.644;2023-02-23T07:08:07;6.70;99.90
16076;DHT22;8142;48.242;11.644;2023-02-23T07:10:33;6.80;99.90
16076;DHT22;8142;48.242;11.644;2023-02-23T07:13:00;6.80;99.90
16076;DHT22;8142;48.242;11.644;2023-02-23T07:15:34;6.90;99.90
16076;DHT22;8142;48.242;11.644;2023-02-23T07:18:01;6.90;99.90
16076;DHT22;8142;48.242;11.644;2023-02-23T07:20:27;7.00;99.90
16076;DHT22;8142;48.242;11.644;2023-02-23T07:22:54;7.00;99.90
16076;DHT22;8142;48.242;11.644;2023-02-23T07:25:23;7.00;99.90
16076;DHT22;8142;48.242;11.644;2023-02-23T07:27:49;7.10;99.90
16076;DHT22;8142;48.242;11.644;2023-02-23T07:30:16;7.10;99.90
16076;DHT22;8142;48.242;11.644;2023-02-23T07:32:47;7.10;99.90
16076;DHT22;8142;48.242;11.644;2023-02-23T07:35:13;7.10;99.90
16076;DHT22;8142;48.242;11.644;2023-02-23T07:37:39;7.20;99.90
16076;DHT22;8142;48.242;11.644;2023-02-23T07:40:08;7.20;99.90
16076;DHT22;8142;48.242;11.644;2023-02-23T07:42:34;7.30;99.90
16076;DHT22;8142;48.242;11.644;2023-02-23T07:45:01;7.30;99.90
16076;DHT22;8142;48.242;11.644;2023-02-23T07:47:27;7.40;99.90
16076;DHT22;8142;48.242;11.644;2023-02-23T07:49:57;7.40;99.90
16076;DHT22;8142;48.242;11.644;2023-02-23T07:52:24;7.50;99.90
16076;DHT22;8142;48.242;11.644;2023-02-23T07:54:51;7.50;99.90
16076;DHT22;8142;48.242;11.644;2023-02-23T07:57:20;7.60;99.90
16076;DHT22;8142;48.242;11.644;2023-02-23T07:59:47;7.70;99.90
16076;DHT22;8142;48.242;11.644;2023-02-23T08:02:14;7.70;99.90
16076;DHT22;8142;48.242;11.644;2023-02-23T08:04:41;7.80;99.90
16076;DHT22;8142;48.242;11.644;2023-02-23T08:07:09;7.80;99.90
16076;DHT22;8142;48.242;11.644;2023-02-23T08:09:35;7.90;99.90
16076;DHT22;8142;48.242;11.644;2023-02-23T08:12:02;7.90;99.90
16076;DHT22;8142;48.242;11.644;2023-02-23T08:14:28;8.00;99.90
16076;DHT22;8142;48.242;11.644;2023-02-23T08:16:54;8.10;99.90
16076;DHT22;8142;48.242;11.644;2023-02-23T08:19:21;8.10;99.90
16076;DHT22;8142;48.242;11.644;2023-02-23T08:21:50;8.10;99.90
16076;DHT22;8142;48.242;11.644;2023-02-23T08:24:17;8.20;99.90
16076;DHT22;8142;48.242;11.644;2023-02-23T08:26:43;8.20;99.90
16076;DHT22;8142;48.242;11.644;2023-02-23T08:29:09;8.20;99.90
16076;DHT22;8142;48.242;11.644;2023-02-23T08:31:35;8.30;99.90
16076;DHT22;8142;48.242;11.644;2023-02-23T08:34:02;8.40;99.90
16076;DHT22;8142;48.242;11.644;2023-02-23T08:36:28;8.40;99.90
16076;DHT22;8142;48.242;11.644;2023-02-23T08:38:55;8.40;99.90
16076;DHT22;8142;48.242;11.644;2023-02-23T08:41:21;8.40;99.90
16076;DHT22;8142;48.242;11.644;2023-02-23T08:43:47;8.50;99.90
16076;DHT22;8142;48.242;11.644;2023-02-23T08:46:14;8.50;99.90
16076;DHT22;8142;48.242;11.644;2023-02-23T08:48:43;8.50;99.90
16076;DHT22;8142;48.242;11.644;2023-02-23T08:51:12;8.60;99.90
16076;DHT22;8142;48.242;11.644;2023-02-23T08:53:42;8.60;99.90
16076;DHT22;8142;48.242;11.644;2023-02-23T08:56:10;8.50;99.90
16076;DHT22;8142;48.242;11.644;2023-02-23T08:58:37;8.60;99.90
16076;DHT22;8142;48.242;11.644;2023-02-23T09:01:04;8.70;99.90
16076;DHT22;8142;48.242;11.644;2023-02-23T09:03:31;8.70;99.90
16076;DHT22;8142;48.242;11.644;2023-02-23T09:06:06;8.70;99.90
16076;DHT22;8142;48.242;11.644;2023-02-23T09:08:33;8.80;99.90
16076;DHT22;8142;48.242;11.644;2023-02-23T09:10:59;8.80;99.90
16076;DHT22;8142;48.242;11.644;2023-02-23T09:13:26;8.90;99.90
16076;DHT22;8142;48.242;11.644;2023-02-23T09:15:52;8.90;99.90
16076;DHT22;8142;48.242;11.644;2023-02-23T09:18:19;8.90;99.90
16076;DHT22;8142;48.242;11.644;2023-02-23T09:20:49;9.00;99.90
16076;DHT22;8142;48.242;11.644;2023-02-23T09:23:16;9.00;99.90
16076;DHT22;8142;48.242;11.644;2023-02-23T09:25:43;9.00;99.90
16076;DHT22;8142;48.242;11.644;2023-02-23T09:28:12;9.10;99.90
16076;DHT22;8142;48.242;11.644;2023-02-23T09:30:40;9.10;99.90
16076;DHT22;8142;48.242;11.644;2023-02-23T09:33:07;9.20;99.90
16076;DHT22;8142;48.242;11.644;2023-02-23T09:35:34;9.20;99.90
16076;DHT22;8142;48.242;11.644;2023-02-23T09:38:02;9.30;99.90
16076;DHT22;8142;48.242;11.644;2023-02-23T09:43:35;9.40;99.90
16076;DHT22;8142;48.242;11.644;2023-02-23T09:46:23;9.40;99.90
16076;DHT22;8142;48.242;11.644;2023-02-23T09:49:00;9.50;99.90
16076;DHT22;8142;48.242;11.644;2023-02-23T09:51:31;9.50;99.90
16076;DHT22;8142;48.242;11.644;2023-02-23T09:54:03;9.60;99.90
16076;DHT22;8142;48.242;11.644;2023-02-23T09:56:46;9.60;99.90
16076;DHT22;8142;48.242;11.644;2023-02-23T09:59:15;9.60;99.90
16076;DHT22;8142;48.242;11.644;2023-02-23T10:04:42;9.70;99.90
16076;DHT22;8142;48.242;11.644;2023-02-23T10:10:20;9.80;99.90
16076;DHT22;8142;48.242;11.644;2023-02-23T10:12:53;9.90;99.90
16076;DHT22;8142;48.242;11.644;2023-02-23T10:15:51;9.90;99.90
16076;DHT22;8142;48.242;11.644;2023-02-23T10:18:37;9.90;99.90
16076;DHT22;8142;48.242;11.644;2023-02-23T10:23:41;10.00;99.90
16076;DHT22;8142;48.242;11.644;2023-02-23T10:26:17;10.00;99.90
16076;DHT22;8142;48.242;11.644;2023-02-23T10:28:45;10.10;99.90
16076;DHT22;8142;48.242;11.644;2023-02-23T10:31:32;10.10;99.90
16076;DHT22;8142;48.242;11.644;2023-02-23T10:34:03;10.10;99.90
16076;DHT22;8142;48.242;11.644;2023-02-23T10:36:38;10.20;99.90
16076;DHT22;8142;48.242;11.644;2023-02-23T10:39:07;10.20;99.90
16076;DHT22;8142;48.242;11.644;2023-02-23T10:41:35;10.30;99.90
16076;DHT22;8142;48.242;11.644;2023-02-23T10:44:03;10.30;99.90
16076;DHT22;8142;48.242;11.644;2023-02-23T10:46:38;10.30;99.90
16076;DHT22;8142;48.242;11.644;2023-02-23T10:49:06;10.30;99.90
16076;DHT22;8142;48.242;11.644;2023-02-23T10:51:38;10.30;99.90
16076;DHT22;8142;48.242;11.644;2023-02-23T10:54:33;10.30;99.90
16076;DHT22;8142;48.242;11.644;2023-02-23T10:57:00;10.30;99.90
16076;DHT22;8142;48.242;11.644;2023-02-23T10:59:28;10.40;99.90
16076;DHT22;8142;48.242;11.644;2023-02-23T11:01:57;10.40;99.90
16076;DHT22;8142;48.242;11.644;2023-02-23T11:04:26;10.40;99.90
16076;DHT22;8142;48.242;11.644;2023-02-23T11:07:17;10.40;99.90
16076;DHT22;8142;48.242;11.644;2023-02-23T11:09:44;10.40;99.90
16076;DHT22;8142;48.242;11.644;2023-02-23T11:14:51;10.40;99.90
16076;DHT22;8142;48.242;11.644;2023-02-23T11:17:28;10.40;99.90
16076;DHT22;8142;48.242;11.644;2023-02-23T11:20:05;10.50;99.90
16076;DHT22;8142;48.242;11.644;2023-02-23T11:22:36;10.50;99.90
16076;DHT22;8142;48.242;11.644;2023-02-23T11:25:16;10.50;99.90
16076;DHT22;8142;48.242;11.644;2023-02-23T11:27:49;10.50;99.90
16076;DHT22;8142;48.242;11.644;2023-02-23T11:30:24;10.50;99.90
16076;DHT22;8142;48.242;11.644;2023-02-23T11:32:59;10.50;99.90
16076;DHT22;8142;48.242;11.644;2023-02-23T11:35:36;10.50;99.90
16076;DHT22;8142;48.242;11.644;2023-02-23T11:38:24;10.60;99.90
16076;DHT22;8142;48.242;11.644;2023-02-23T11:41:06;10.60;99.90
16076;DHT22;8142;48.242;11.644;2023-02-23T11:43:56;10.60;99.90
16076;DHT22;8142;48.242;11.644;2023-02-23T11:46:23;10.60;99.90
16076;DHT22;8142;48.242;11.644;2023-02-23T11:49:08;10.70;99.90
16076;DHT22;8142;48.242;11.644;2023-02-23T11:51:44;10.80;99.90
16076;DHT22;8142;48.242;11.644;2023-02-23T11:54:24;10.80;99.90
16076;DHT22;8142;48.242;11.644;2023-02-23T11:56:52;10.90;99.90
16076;DHT22;8142;48.242;11.644;2023-02-23T11:59:28;10.90;99.90
16076;DHT22;8142;48.242;11.644;2023-02-23T12:02:42;10.90;99.90
16076;DHT22;8142;48.242;11.644;2023-02-23T12:04:50;11.00;99.90
16076;DHT22;8142;48.242;11.644;2023-02-23T12:13:01;11.00;99.90
16076;DHT22;8142;48.242;11.644;2023-02-23T12:20:59;11.10;99.90
16076;DHT22;8142;48.242;11.644;2023-02-23T12:23:28;11.10;99.90
16076;DHT22;8142;48.242;11.644;2023-02-23T12:26:15;11.10;99.90
16076;DHT22;8142;48.242;11.644;2023-02-23T12:31:24;11.20;99.90
16076;DHT22;8142;48.242;11.644;2023-02-23T12:34:08;11.20;99.90
16076;DHT22;8142;48.242;11.644;2023-02-23T12:36:47;11.20;99.90
16076;DHT22;8142;48.242;11.644;2023-02-23T12:39:32;11.30;99.90
16076;DHT22;8142;48.242;11.644;2023-02-23T12:45:00;11.40;99.90
16076;DHT22;8142;48.242;11.644;2023-02-23T12:52:54;11.50;99.90
16076;DHT22;8142;48.242;11.644;2023-02-23T12:55:56;11.60;99.90
16076;DHT22;8142;48.242;11.644;2023-02-23T12:58:28;11.60;99.90
16076;DHT22;8142;48.242;11.644;2023-02-23T13:01:11;11.60;99.90
16076;DHT22;8142;48.242;11.644;2023-02-23T13:09:35;11.70;99.90
16076;DHT22;8142;48.242;11.644;2023-02-23T13:20:51;11.60;99.90
16076;DHT22;8142;48.242;11.644;2023-02-23T13:23:29;11.60;99.90
16076;DHT22;8142;48.242;11.644;2023-02-23T13:31:57;11.60;99.90
16076;DHT22;8142;48.242;11.644;2023-02-23T13:34:32;11.60;99.90
16076;DHT22;8142;48.242;11.644;2023-02-23T13:37:11;11.60;99.90
16076;DHT22;8142;48.242;11.644;2023-02-23T13:43:06;11.50;99.90
16076;DHT22;8142;48.242;11.644;2023-02-23T13:48:15;11.50;99.90
16076;DHT22;8142;48.242;11.644;2023-02-23T13:57:11;11.50;99.90
16076;DHT22;8142;48.242;11.644;2023-02-23T13:59:38;11.50;99.90
16076;DHT22;8142;48.242;11.644;2023-02-23T14:02:35;11.50;99.90
16076;DHT22;8142;48.242;11.644;2023-02-23T14:05:21;11.50;99.90
16076;DHT22;8142;48.242;11.644;2023-02-23T14:08:01;11.50;99.90
16076;DHT22;8142;48.242;11.644;2023-02-23T14:10:49;11.50;99.90
16076;DHT22;8142;48.242;11.644;2023-02-23T14:13:30;11.60;99.90
16076;DHT22;8142;48.242;11.644;2023-02-23T14:16:10;11.60;99.90
16076;DHT22;8142;48.242;11.644;2023-02-23T14:21:25;11.50;99.90
16076;DHT22;8142;48.242;11.644;2023-02-23T14:29:26;11.60;99.90
16076;DHT22;8142;48.242;11.644;2023-02-23T14:39:53;11.60;99.90
16076;DHT22;8142;48.242;11.644;2023-02-23T14:42:23;11.60;99.90
16076;DHT22;8142;48.242;11.644;2023-02-23T14:44:52;11.60;99.90
16076;DHT22;8142;48.242;11.644;2023-02-23T14:47:25;11.70;99.90
16076;DHT22;8142;48.242;11.644;2023-02-23T14:49:57;11.60;99.90
16076;DHT22;8142;48.242;11.644;2023-02-23T14:52:43;11.60;99.90
16076;DHT22;8142;48.242;11.644;2023-02-23T14:55:23;11.60;99.90
16076;DHT22;8142;48.242;11.644;2023-02-23T14:57:53;11.70;99.90
16076;DHT22;8142;48.242;11.644;2023-02-23T15:00:24;11.70;99.90
16076;DHT22;8142;48.242;11.644;2023-02-23T15:02:57;11.60;99.90
16076;DHT22;8142;48.242;11.644;2023-02-23T15:05:32;11.60;99.90
16076;DHT22;8142;48.242;11.644;2023-02-23T15:08:12;11.60;99.90
16076;DHT22;8142;48.242;11.644;2023-02-23T15:10:45;11.60;99.90
16076;DHT22;8142;48.242;11.644;2023-02-23T15:13:29;11.60;99.90
16076;DHT22;8142;48.242;11.644;2023-02-23T15:16:00;11.50;99.90
16076;DHT22;8142;48.242;11.644;2023-02-23T15:21:52;11.50;99.90
16076;DHT22;8142;48.242;11.644;2023-02-23T15:24:23;11.50;99.90
16076;DHT22;8142;48.242;11.644;2023-02-23T15:26:54;11.40;99.90
16076;DHT22;8142;48.242;11.644;2023-02-23T15:29:23;11.40;99.90
16076;DHT22;8142;48.242;11.644;2023-02-23T15:31:52;11.40;99.90
16076;DHT22;8142;48.242;11.644;2023-02-23T15:34:21;11.40;99.90
16076;DHT22;8142;48.242;11.644;2023-02-23T15:36:53;11.40;99.90
16076;DHT22;8142;48.242;11.644;2023-02-23T15:39:29;11.40;99.90
16076;DHT22;8142;48.242;11.644;2023-02-23T15:42:01;11.30;99.90
16076;DHT22;8142;48.242;11.644;2023-02-23T15:44:28;11.30;99.90
16076;DHT22;8142;48.242;11.644;2023-02-23T15:47:03;11.30;99.90
16076;DHT22;8142;48.242;11.644;2023-02-23T15:49:36;11.20;99.90
16076;DHT22;8142;48.242;11.644;2023-02-23T15:52:06;11.20;99.90
16076;DHT22;8142;48.242;11.644;2023-02-23T15:54:46;11.20;99.90
16076;DHT22;8142;48.242;11.644;2023-02-23T15:57:18;11.20;99.90
16076;DHT22;8142;48.242;11.644;2023-02-23T15:59:47;11.10;99.90
16076;DHT22;8142;48.242;11.644;2023-02-23T16:02:16;11.10;99.90
16076;DHT22;8142;48.242;11.644;2023-02-23T16:04:46;11.10;99.90
16076;DHT22;8142;48.242;11.644;2023-02-23T16:07:22;11.00;99.90
16076;DHT22;8142;48.242;11.644;2023-02-23T16:12:39;11.00;99.90
16076;DHT22;8142;48.242;11.644;2023-02-23T16:15:25;10.80;99.90
16076;DHT22;8142;48.242;11.644;2023-02-23T16:17:57;10.70;99.90
16076;DHT22;8142;48.242;11.644;2023-02-23T16:20:33;10.70;99.90
16076;DHT22;8142;48.242;11.644;2023-02-23T16:23:01;10.60;99.90
16076;DHT22;8142;48.242;11.644;2023-02-23T16:25:29;10.60;99.90
16076;DHT22;8142;48.242;11.644;2023-02-23T16:28:07;10.60;99.90
16076;DHT22;8142;48.242;11.644;2023-02-23T16:30:43;10.60;99.90
16076;DHT22;8142;48.242;11.644;2023-02-23T16:33:22;10.50;99.90
16076;DHT22;8142;48.242;11.644;2023-02-23T16:35:52;10.40;99.90
16076;DHT22;8142;48.242;11.644;2023-02-23T16:38:34;10.40;99.90
16076;DHT22;8142;48.242;11.644;2023-02-23T16:41:05;10.40;99.90
16076;DHT22;8142;48.242;11.644;2023-02-23T16:43:35;10.40;99.90
16076;DHT22;8142;48.242;11.644;2023-02-23T16:46:02;10.40;99.90
16076;DHT22;8142;48.242;11.644;2023-02-23T16:48:28;10.40;99.90
16076;DHT22;8142;48.242;11.644;2023-02-23T16:50:54;10.30;99.90
16076;DHT22;8142;48.242;11.644;2023-02-23T16:53:20;10.30;99.90
16076;DHT22;8142;48.242;11.644;2023-02-23T16:55:51;10.30;99.90
16076;DHT22;8142;48.242;11.644;2023-02-23T16:58:23;10.20;99.90
16076;DHT22;8142;48.242;11.644;2023-02-23T17:00:50;10.20;99.90
16076;DHT22;8142;48.242;11.644;2023-02-23T17:03:22;10.10;99.90
16076;DHT22;8142;48.242;11.644;2023-02-23T17:05:50;10.00;99.90
16076;DHT22;8142;48.242;11.644;2023-02-23T17:08:16;9.90;99.90
16076;DHT22;8142;48.242;11.644;2023-02-23T17:10:45;9.80;99.90
16076;DHT22;8142;48.242;11.644;2023-02-23T17:13:20;9.70;99.90
16076;DHT22;8142;48.242;11.644;2023-02-23T17:15:48;9.60;99.90
16076;DHT22;8142;48.242;11.644;2023-02-23T17:18:20;9.50;99.90
16076;DHT22;8142;48.242;11.644;2023-02-23T17:20:52;9.40;99.90
16076;DHT22;8142;48.242;11.644;2023-02-23T17:23:20;9.30;99.90
16076;DHT22;8142;48.242;11.644;2023-02-23T17:25:47;9.20;99.90
16076;DHT22;8142;48.242;11.644;2023-02-23T17:28:14;9.20;99.90
16076;DHT22;8142;48.242;11.644;2023-02-23T17:30:40;9.10;99.90
16076;DHT22;8142;48.242;11.644;2023-02-23T17:33:08;9.00;99.90
16076;DHT22;8142;48.242;11.644;2023-02-23T17:35:34;9.00;99.90
16076;DHT22;8142;48.242;11.644;2023-02-23T17:38:03;8.90;99.90
16076;DHT22;8142;48.242;11.644;2023-02-23T17:40:30;8.80;99.90
16076;DHT22;8142;48.242;11.644;2023-02-23T17:43:03;8.80;99.90
16076;DHT22;8142;48.242;11.644;2023-02-23T17:45:31;8.80;99.90
16076;DHT22;8142;48.242;11.644;2023-02-23T17:47:57;8.80;99.90
16076;DHT22;8142;48.242;11.644;2023-02-23T17:50:24;8.90;99.90
16076;DHT22;8142;48.242;11.644;2023-02-23T17:52:52;8.90;99.90
16076;DHT22;8142;48.242;11.644;2023-02-23T17:55:19;8.90;99.90
16076;DHT22;8142;48.242;11.644;2023-02-23T17:57:49;8.90;99.90
16076;DHT22;8142;48.242;11.644;2023-02-23T18:00:17;8.90;99.90
16076;DHT22;8142;48.242;11.644;2023-02-23T18:02:44;8.90;99.90
16076;DHT22;8142;48.242;11.644;2023-02-23T18:05:12;8.90;99.90
16076;DHT22;8142;48.242;11.644;2023-02-23T18:07:39;8.90;99.90
16076;DHT22;8142;48.242;11.644;2023-02-23T18:10:06;8.90;99.90
16076;DHT22;8142;48.242;11.644;2023-02-23T18:12:32;8.90;99.90
16076;DHT22;8142;48.242;11.644;2023-02-23T18:14:59;8.90;99.90
16076;DHT22;8142;48.242;11.644;2023-02-23T18:17:25;8.80;99.90